sensor_id;sensor_type;location;lat;lon;timestamp;pressure;altitude;pressure_sealevel;temperature;humidity
66381;BME280;53177;52.648;1.214;2022-07-29T00:01:46;101445.81;;;15.21;77.00
66381;BME280;53177;52.648;1.214;2022-07-29T00:04:12;101443.22;;;15.36;76.01
66381;BME280;53177;52.648;1.214;2022-07-29T00:06:37;101442.03;;;15.22;77.07
66381;BME280;53177;52.648;1.214;2022-07-29T00:09:03;101439.41;;;15.32;76.40
66381;BME280;53177;52.648;1.214;2022-07-29T00:11:28;101434.44;;;15.14;77.31
66381;BME280;53177;52.648;1.214;2022-07-29T00:13:54;101437.16;;;15.19;77.53
66381;BME280;53177;52.648;1.214;2022-07-29T00:16:19;101424.72;;;15.18;77.20
66381;BME280;53177;52.648;1.214;2022-07-29T00:18:44;101436.00;;;15.05;78.11
66381;BME280;53177;52.648;1.214;2022-07-29T00:21:10;101433.81;;;15.07;78.55
66381;BME280;53177;52.648;1.214;2022-07-29T00:23:35;101423.03;;;15.12;78.06
66381;BME280;53177;52.648;1.214;2022-07-29T00:26:01;101418.69;;;15.11;78.16
66381;BME280;53177;52.648;1.214;2022-07-29T00:28:26;101419.69;;;15.00;78.65
66381;BME280;53177;52.648;1.214;2022-07-29T00:30:52;101419.16;;;14.98;79.25
66381;BME280;53177;52.648;1.214;2022-07-29T00:33:17;101419.75;;;15.05;78.36
66381;BME280;53177;52.648;1.214;2022-07-29T00:35:42;101424.63;;;15.08;78.69
66381;BME280;53177;52.648;1.214;2022-07-29T00:38:15;101417.09;;;15.10;77.98
66381;BME280;53177;52.648;1.214;2022-07-29T00:40:42;101424.22;;;14.89;79.45
66381;BME280;53177;52.648;1.214;2022-07-29T00:43:08;101419.97;;;14.98;78.70
66381;BME280;53177;52.648;1.214;2022-07-29T00:45:33;101423.41;;;14.88;79.03
66381;BME280;53177;52.648;1.214;2022-07-29T00:47:59;101418.28;;;14.87;79.15
66381;BME280;53177;52.648;1.214;2022-07-29T00:50:25;101416.38;;;14.87;79.04
66381;BME280;53177;52.648;1.214;2022-07-29T00:52:51;101423.13;;;14.85;79.29
66381;BME280;53177;52.648;1.214;2022-07-29T00:55:17;101423.41;;;14.88;78.96
66381;BME280;53177;52.648;1.214;2022-07-29T00:57:43;101410.75;;;14.94;78.25
66381;BME280;53177;52.648;1.214;2022-07-29T01:00:12;101409.09;;;14.88;79.07
66381;BME280;53177;52.648;1.214;2022-07-29T01:02:40;101405.00;;;14.85;79.14
66381;BME280;53177;52.648;1.214;2022-07-29T01:05:06;101402.19;;;14.70;80.00
66381;BME280;53177;52.648;1.214;2022-07-29T01:07:34;101403.28;;;14.69;79.80
66381;BME280;53177;52.648;1.214;2022-07-29T01:10:02;101401.56;;;14.63;80.44
66381;BME280;53177;52.648;1.214;2022-07-29T01:12:30;101412.66;;;14.61;80.33
66381;BME280;53177;52.648;1.214;2022-07-29T01:15:00;101408.56;;;14.59;80.65
66381;BME280;53177;52.648;1.214;2022-07-29T01:23:17;101411.50;;;14.52;80.68
66381;BME280;53177;52.648;1.214;2022-07-29T01:31:10;101401.50;;;14.53;80.33
66381;BME280;53177;52.648;1.214;2022-07-29T01:33:41;101407.81;;;14.36;81.53
66381;BME280;53177;52.648;1.214;2022-07-29T01:36:18;101409.69;;;14.36;81.23
66381;BME280;53177;52.648;1.214;2022-07-29T01:39:01;101400.28;;;14.38;81.07
66381;BME280;53177;52.648;1.214;2022-07-29T01:41:31;101405.72;;;14.44;80.81
66381;BME280;53177;52.648;1.214;2022-07-29T01:44:02;101405.72;;;14.44;80.72
66381;BME280;53177;52.648;1.214;2022-07-29T01:46:34;101400.78;;;14.35;81.17
66381;BME280;53177;52.648;1.214;2022-07-29T01:49:06;101406.09;;;14.25;81.86
66381;BME280;53177;52.648;1.214;2022-07-29T01:51:41;101412.50;;;14.19;82.36
66381;BME280;53177;52.648;1.214;2022-07-29T01:54:14;101406.50;;;14.12;82.43
66381;BME280;53177;52.648;1.214;2022-07-29T01:56:42;101405.28;;;14.25;81.99
66381;BME280;53177;52.648;1.214;2022-07-29T01:59:10;101409.69;;;14.09;82.71
66381;BME280;53177;52.648;1.214;2022-07-29T02:01:50;101402.69;;;14.08;83.05
66381;BME280;53177;52.648;1.214;2022-07-29T02:04:18;101405.06;;;14.04;82.93
66381;BME280;53177;52.648;1.214;2022-07-29T02:06:47;101401.72;;;13.97;83.39
66381;BME280;53177;52.648;1.214;2022-07-29T02:09:14;101402.03;;;14.01;83.02
66381;BME280;53177;52.648;1.214;2022-07-29T02:11:47;101392.53;;;13.93;83.73
66381;BME280;53177;52.648;1.214;2022-07-29T02:14:14;101384.13;;;13.89;83.44
66381;BME280;53177;52.648;1.214;2022-07-29T02:16:41;101391.03;;;13.80;84.09
66381;BME280;53177;52.648;1.214;2022-07-29T02:19:08;101401.84;;;13.80;84.18
66381;BME280;53177;52.648;1.214;2022-07-29T02:21:35;101392.09;;;13.79;83.75
66381;BME280;53177;52.648;1.214;2022-07-29T02:24:02;101394.56;;;13.81;84.20
66381;BME280;53177;52.648;1.214;2022-07-29T02:26:30;101396.06;;;13.72;84.57
66381;BME280;53177;52.648;1.214;2022-07-29T02:28:57;101399.84;;;13.71;85.01
66381;BME280;53177;52.648;1.214;2022-07-29T02:31:28;101392.09;;;13.79;84.15
66381;BME280;53177;52.648;1.214;2022-07-29T02:33:55;101395.03;;;13.78;84.40
66381;BME280;53177;52.648;1.214;2022-07-29T02:36:23;101393.09;;;13.73;84.07
66381;BME280;53177;52.648;1.214;2022-07-29T02:38:50;101390.47;;;13.78;84.13
66381;BME280;53177;52.648;1.214;2022-07-29T02:41:20;101387.91;;;13.67;84.70
66381;BME280;53177;52.648;1.214;2022-07-29T02:43:48;101382.19;;;13.63;84.58
66381;BME280;53177;52.648;1.214;2022-07-29T02:46:19;101387.75;;;13.56;85.27
66381;BME280;53177;52.648;1.214;2022-07-29T02:48:56;101392.94;;;13.58;85.03
66381;BME280;53177;52.648;1.214;2022-07-29T02:51:27;101392.88;;;13.53;85.30
66381;BME280;53177;52.648;1.214;2022-07-29T02:53:56;101389.84;;;13.49;85.28
66381;BME280;53177;52.648;1.214;2022-07-29T02:56:25;101386.34;;;13.49;85.44
66381;BME280;53177;52.648;1.214;2022-07-29T02:58:57;101390.91;;;13.48;86.25
66381;BME280;53177;52.648;1.214;2022-07-29T03:01:25;101388.28;;;13.53;85.60
66381;BME280;53177;52.648;1.214;2022-07-29T03:03:55;101393.53;;;13.43;86.10
66381;BME280;53177;52.648;1.214;2022-07-29T03:06:23;101388.66;;;13.40;86.05
66381;BME280;53177;52.648;1.214;2022-07-29T03:08:50;101392.91;;;13.36;86.25
66381;BME280;53177;52.648;1.214;2022-07-29T03:11:16;101392.84;;;13.31;86.62
66381;BME280;53177;52.648;1.214;2022-07-29T03:13:43;101396.84;;;13.28;86.70
66381;BME280;53177;52.648;1.214;2022-07-29T03:16:09;101394.09;;;13.23;86.61
66381;BME280;53177;52.648;1.214;2022-07-29T03:18:35;101387.06;;;13.22;86.62
66381;BME280;53177;52.648;1.214;2022-07-29T03:21:02;101381.59;;;13.17;87.32
66381;BME280;53177;52.648;1.214;2022-07-29T03:23:28;101384.28;;;13.17;87.38
66381;BME280;53177;52.648;1.214;2022-07-29T03:25:54;101389.97;;;13.21;87.06
66381;BME280;53177;52.648;1.214;2022-07-29T03:28:19;101388.03;;;13.16;87.61
66381;BME280;53177;52.648;1.214;2022-07-29T03:30:45;101386.66;;;13.13;87.36
66381;BME280;53177;52.648;1.214;2022-07-29T03:33:11;101380.25;;;13.20;87.39
66381;BME280;53177;52.648;1.214;2022-07-29T03:35:36;101382.63;;;13.16;87.64
66381;BME280;53177;52.648;1.214;2022-07-29T03:38:02;101387.63;;;13.07;87.79
66381;BME280;53177;52.648;1.214;2022-07-29T03:40:56;101393.53;;;13.04;87.91
66381;BME280;53177;52.648;1.214;2022-07-29T03:43:20;101389.69;;;13.00;88.48
66381;BME280;53177;52.648;1.214;2022-07-29T03:45:52;101389.38;;;12.97;88.53
66381;BME280;53177;52.648;1.214;2022-07-29T03:48:22;101396.88;;;12.95;88.39
66381;BME280;53177;52.648;1.214;2022-07-29T03:50:50;101392.22;;;12.90;88.60
66381;BME280;53177;52.648;1.214;2022-07-29T03:53:16;101391.94;;;12.86;89.04
66381;BME280;53177;52.648;1.214;2022-07-29T03:55:45;101395.75;;;12.90;89.14
66381;BME280;53177;52.648;1.214;2022-07-29T03:58:13;101388.91;;;12.83;89.11
66381;BME280;53177;52.648;1.214;2022-07-29T04:00:39;101397.25;;;12.81;89.15
66381;BME280;53177;52.648;1.214;2022-07-29T04:03:05;101402.13;;;12.84;89.06
66381;BME280;53177;52.648;1.214;2022-07-29T04:05:31;101390.53;;;12.84;88.96
66381;BME280;53177;52.648;1.214;2022-07-29T04:07:57;101397.25;;;12.81;88.94
66381;BME280;53177;52.648;1.214;2022-07-29T04:10:23;101393.13;;;12.96;88.79
66381;BME280;53177;52.648;1.214;2022-07-29T04:12:49;101396.19;;;12.82;89.01
66381;BME280;53177;52.648;1.214;2022-07-29T04:15:15;101391.66;;;12.88;89.44
66381;BME280;53177;52.648;1.214;2022-07-29T04:17:40;101403.28;;;12.88;89.84
66381;BME280;53177;52.648;1.214;2022-07-29T04:20:06;101397.00;;;12.83;90.15
66381;BME280;53177;52.648;1.214;2022-07-29T04:22:32;101392.97;;;12.85;89.74
66381;BME280;53177;52.648;1.214;2022-07-29T04:24:57;101391.84;;;12.81;90.03
66381;BME280;53177;52.648;1.214;2022-07-29T04:27:23;101387.75;;;12.79;89.69
66381;BME280;53177;52.648;1.214;2022-07-29T04:29:48;101396.09;;;12.77;89.60
66381;BME280;53177;52.648;1.214;2022-07-29T04:32:13;101398.06;;;12.82;90.15
66381;BME280;53177;52.648;1.214;2022-07-29T04:34:39;101404.75;;;12.79;90.79
66381;BME280;53177;52.648;1.214;2022-07-29T04:37:04;101398.22;;;12.75;90.76
66381;BME280;53177;52.648;1.214;2022-07-29T04:39:29;101404.66;;;12.74;90.94
66381;BME280;53177;52.648;1.214;2022-07-29T04:41:55;101399.03;;;12.76;91.02
66381;BME280;53177;52.648;1.214;2022-07-29T04:44:21;101401.97;;;12.74;91.34
66381;BME280;53177;52.648;1.214;2022-07-29T04:46:46;101402.97;;;12.68;91.32
66381;BME280;53177;52.648;1.214;2022-07-29T04:49:12;101398.06;;;12.65;91.40
66381;BME280;53177;52.648;1.214;2022-07-29T04:51:38;101405.88;;;12.67;91.78
66381;BME280;53177;52.648;1.214;2022-07-29T04:54:03;101398.38;;;12.69;91.73
66381;BME280;53177;52.648;1.214;2022-07-29T04:56:29;101393.28;;;12.72;91.48
66381;BME280;53177;52.648;1.214;2022-07-29T04:58:54;101400.56;;;12.72;91.67
66381;BME280;53177;52.648;1.214;2022-07-29T05:01:19;101396.09;;;12.77;91.85
66381;BME280;53177;52.648;1.214;2022-07-29T05:03:45;101395.59;;;12.80;91.48
66381;BME280;53177;52.648;1.214;2022-07-29T05:06:11;101389.16;;;12.81;91.64
66381;BME280;53177;52.648;1.214;2022-07-29T05:08:36;101390.59;;;12.89;91.27
66381;BME280;53177;52.648;1.214;2022-07-29T05:11:02;101393.63;;;12.93;91.44
66381;BME280;53177;52.648;1.214;2022-07-29T05:13:29;101396.88;;;12.95;91.27
66381;BME280;53177;52.648;1.214;2022-07-29T05:15:55;101398.59;;;13.01;91.21
66381;BME280;53177;52.648;1.214;2022-07-29T05:18:23;101397.13;;;13.10;90.29
66381;BME280;53177;52.648;1.214;2022-07-29T05:20:57;101397.38;;;13.08;90.23
66381;BME280;53177;52.648;1.214;2022-07-29T05:23:22;101399.94;;;13.20;90.28
66381;BME280;53177;52.648;1.214;2022-07-29T05:25:48;101401.13;;;13.24;90.89
66381;BME280;53177;52.648;1.214;2022-07-29T05:28:13;101393.16;;;13.34;90.50
66381;BME280;53177;52.648;1.214;2022-07-29T05:30:39;101389.47;;;13.40;90.45
66381;BME280;53177;52.648;1.214;2022-07-29T05:33:04;101392.22;;;13.46;90.05
66381;BME280;53177;52.648;1.214;2022-07-29T05:35:30;101400.34;;;13.46;89.84
66381;BME280;53177;52.648;1.214;2022-07-29T05:37:55;101397.63;;;13.46;89.66
66381;BME280;53177;52.648;1.214;2022-07-29T05:40:22;101394.66;;;13.47;89.67
66381;BME280;53177;52.648;1.214;2022-07-29T05:42:47;101396.88;;;13.50;89.28
66381;BME280;53177;52.648;1.214;2022-07-29T05:45:13;101396.38;;;13.53;89.32
66381;BME280;53177;52.648;1.214;2022-07-29T05:47:38;101403.41;;;13.54;89.47
66381;BME280;53177;52.648;1.214;2022-07-29T05:50:04;101402.34;;;13.55;89.67
66381;BME280;53177;52.648;1.214;2022-07-29T05:52:29;101396.78;;;13.62;89.38
66381;BME280;53177;52.648;1.214;2022-07-29T05:54:55;101398.44;;;13.68;89.12
66381;BME280;53177;52.648;1.214;2022-07-29T05:57:22;101402.78;;;13.69;89.04
66381;BME280;53177;52.648;1.214;2022-07-29T05:59:49;101405.47;;;13.69;89.25
66381;BME280;53177;52.648;1.214;2022-07-29T06:02:15;101402.06;;;13.79;89.33
66381;BME280;53177;52.648;1.214;2022-07-29T06:04:41;101408.91;;;13.86;88.95
66381;BME280;53177;52.648;1.214;2022-07-29T06:07:07;101412.31;;;13.99;88.84
66381;BME280;53177;52.648;1.214;2022-07-29T06:09:33;101407.50;;;14.06;88.42
66381;BME280;53177;52.648;1.214;2022-07-29T06:11:59;101416.19;;;14.08;88.94
66381;BME280;53177;52.648;1.214;2022-07-29T06:14:25;101408.94;;;14.13;88.80
66381;BME280;53177;52.648;1.214;2022-07-29T06:16:51;101413.63;;;14.23;88.46
66381;BME280;53177;52.648;1.214;2022-07-29T06:19:18;101414.56;;;14.34;87.94
66381;BME280;53177;52.648;1.214;2022-07-29T06:21:44;101412.72;;;14.39;87.79
66381;BME280;53177;52.648;1.214;2022-07-29T06:24:11;101407.91;;;14.47;87.82
66381;BME280;53177;52.648;1.214;2022-07-29T06:26:38;101407.78;;;14.63;87.94
66381;BME280;53177;52.648;1.214;2022-07-29T06:29:03;101408.94;;;14.73;87.80
66381;BME280;53177;52.648;1.214;2022-07-29T06:31:29;101406.00;;;14.74;87.14
66381;BME280;53177;52.648;1.214;2022-07-29T06:33:54;101411.44;;;14.79;87.08
66381;BME280;53177;52.648;1.214;2022-07-29T06:36:19;101414.72;;;14.86;87.52
66381;BME280;53177;52.648;1.214;2022-07-29T06:38:45;101406.75;;;15.02;87.21
66381;BME280;53177;52.648;1.214;2022-07-29T06:41:10;101411.69;;;15.15;86.79
66381;BME280;53177;52.648;1.214;2022-07-29T06:43:41;101411.47;;;15.27;84.76
66381;BME280;53177;52.648;1.214;2022-07-29T06:46:09;101409.84;;;15.26;85.40
66381;BME280;53177;52.648;1.214;2022-07-29T06:48:35;101412.31;;;15.27;85.77
66381;BME280;53177;52.648;1.214;2022-07-29T06:51:04;101409.63;;;15.32;86.13
66381;BME280;53177;52.648;1.214;2022-07-29T06:53:30;101410.00;;;15.51;85.84
66381;BME280;53177;52.648;1.214;2022-07-29T06:55:57;101408.13;;;15.62;85.90
66381;BME280;53177;52.648;1.214;2022-07-29T06:58:23;101406.03;;;15.74;85.00
66381;BME280;53177;52.648;1.214;2022-07-29T07:00:49;101419.09;;;15.82;83.96
66381;BME280;53177;52.648;1.214;2022-07-29T07:03:16;101425.31;;;15.83;85.15
66381;BME280;53177;52.648;1.214;2022-07-29T07:05:41;101414.81;;;16.07;84.02
66381;BME280;53177;52.648;1.214;2022-07-29T07:08:07;101420.78;;;16.14;84.40
66381;BME280;53177;52.648;1.214;2022-07-29T07:10:33;101423.00;;;16.42;82.76
66381;BME280;53177;52.648;1.214;2022-07-29T07:12:59;101420.03;;;16.49;81.21
66381;BME280;53177;52.648;1.214;2022-07-29T07:15:25;101423.56;;;16.50;80.38
66381;BME280;53177;52.648;1.214;2022-07-29T07:17:50;101424.66;;;16.74;80.24
66381;BME280;53177;52.648;1.214;2022-07-29T07:20:17;101430.66;;;16.97;79.59
66381;BME280;53177;52.648;1.214;2022-07-29T07:22:43;101427.38;;;16.89;76.24
66381;BME280;53177;52.648;1.214;2022-07-29T07:25:09;101427.38;;;16.89;76.07
66381;BME280;53177;52.648;1.214;2022-07-29T07:27:34;101430.63;;;16.91;74.93
66381;BME280;53177;52.648;1.214;2022-07-29T07:30:00;101439.84;;;16.90;75.89
66381;BME280;53177;52.648;1.214;2022-07-29T07:32:25;101431.69;;;16.96;73.61
66381;BME280;53177;52.648;1.214;2022-07-29T07:34:51;101425.72;;;17.19;73.22
66381;BME280;53177;52.648;1.214;2022-07-29T07:37:16;101427.63;;;17.03;74.43
66381;BME280;53177;52.648;1.214;2022-07-29T07:39:44;101427.63;;;17.03;74.23
66381;BME280;53177;52.648;1.214;2022-07-29T07:42:09;101433.31;;;17.12;73.79
66381;BME280;53177;52.648;1.214;2022-07-29T07:44:37;101426.78;;;17.18;73.71
66381;BME280;53177;52.648;1.214;2022-07-29T07:47:03;101433.84;;;17.24;72.59
66381;BME280;53177;52.648;1.214;2022-07-29T07:49:28;101427.31;;;17.30;72.84
66381;BME280;53177;52.648;1.214;2022-07-29T07:51:53;101429.44;;;17.43;70.64
66381;BME280;53177;52.648;1.214;2022-07-29T07:54:19;101422.91;;;17.55;69.55
66381;BME280;53177;52.648;1.214;2022-07-29T07:56:44;101427.22;;;17.61;67.99
66381;BME280;53177;52.648;1.214;2022-07-29T07:59:09;101424.41;;;17.81;66.07
66381;BME280;53177;52.648;1.214;2022-07-29T08:01:35;101423.81;;;17.94;65.77
66381;BME280;53177;52.648;1.214;2022-07-29T08:04:00;101425.50;;;17.90;65.17
66381;BME280;53177;52.648;1.214;2022-07-29T08:06:26;101426.00;;;17.92;63.77
66381;BME280;53177;52.648;1.214;2022-07-29T08:08:51;101413.97;;;18.09;64.35
66381;BME280;53177;52.648;1.214;2022-07-29T08:11:16;101414.66;;;18.25;63.43
66381;BME280;53177;52.648;1.214;2022-07-29T08:13:42;101418.66;;;18.37;62.79
66381;BME280;53177;52.648;1.214;2022-07-29T08:16:08;101410.28;;;18.29;63.78
66381;BME280;53177;52.648;1.214;2022-07-29T08:18:38;101418.78;;;18.22;63.07
66381;BME280;53177;52.648;1.214;2022-07-29T08:21:04;101418.78;;;18.22;64.04
66381;BME280;53177;52.648;1.214;2022-07-29T08:23:30;101413.34;;;18.17;63.28
66381;BME280;53177;52.648;1.214;2022-07-29T08:26:04;101420.03;;;18.35;62.88
66381;BME280;53177;52.648;1.214;2022-07-29T08:28:30;101415.84;;;18.13;60.58
66381;BME280;53177;52.648;1.214;2022-07-29T08:30:55;101423.25;;;17.98;59.37
66381;BME280;53177;52.648;1.214;2022-07-29T08:33:21;101416.13;;;18.07;59.85
66381;BME280;53177;52.648;1.214;2022-07-29T08:35:46;101417.22;;;18.50;59.64
66381;BME280;53177;52.648;1.214;2022-07-29T08:38:12;101409.81;;;18.90;61.35
66381;BME280;53177;52.648;1.214;2022-07-29T08:40:37;101416.22;;;19.28;60.83
66381;BME280;53177;52.648;1.214;2022-07-29T08:43:07;101416.09;;;19.14;60.93
66381;BME280;53177;52.648;1.214;2022-07-29T08:45:51;101416.50;;;19.03;62.60
66381;BME280;53177;52.648;1.214;2022-07-29T08:48:23;101417.94;;;19.19;62.20
66381;BME280;53177;52.648;1.214;2022-07-29T08:50:52;101413.16;;;19.35;61.30
66381;BME280;53177;52.648;1.214;2022-07-29T08:53:20;101418.63;;;19.06;61.19
66381;BME280;53177;52.648;1.214;2022-07-29T08:55:48;101418.25;;;19.41;59.91
66381;BME280;53177;52.648;1.214;2022-07-29T08:58:15;101416.69;;;19.83;58.28
66381;BME280;53177;52.648;1.214;2022-07-29T09:00:43;101423.34;;;20.15;59.36
66381;BME280;53177;52.648;1.214;2022-07-29T09:03:12;101423.94;;;20.50;59.46
66381;BME280;53177;52.648;1.214;2022-07-29T09:05:41;101421.84;;;20.60;58.50
66381;BME280;53177;52.648;1.214;2022-07-29T09:08:07;101426.63;;;19.93;58.60
66381;BME280;53177;52.648;1.214;2022-07-29T09:10:36;101427.69;;;19.73;59.34
66381;BME280;53177;52.648;1.214;2022-07-29T09:13:02;101425.03;;;19.68;58.79
66381;BME280;53177;52.648;1.214;2022-07-29T09:15:28;101421.41;;;19.97;62.90
66381;BME280;53177;52.648;1.214;2022-07-29T09:17:53;101423.50;;;20.05;58.38
66381;BME280;53177;52.648;1.214;2022-07-29T09:20:22;101420.81;;;20.37;58.66
66381;BME280;53177;52.648;1.214;2022-07-29T09:22:49;101422.81;;;20.51;60.16
66381;BME280;53177;52.648;1.214;2022-07-29T09:25:36;101429.66;;;20.29;58.29
66381;BME280;53177;52.648;1.214;2022-07-29T09:28:10;101429.09;;;20.32;57.06
66381;BME280;53177;52.648;1.214;2022-07-29T09:30:50;101433.88;;;20.03;57.87
66381;BME280;53177;52.648;1.214;2022-07-29T09:33:16;101437.28;;;20.32;57.66
66381;BME280;53177;52.648;1.214;2022-07-29T09:35:41;101439.44;;;21.01;58.25
66381;BME280;53177;52.648;1.214;2022-07-29T09:38:13;101433.69;;;21.16;54.40
66381;BME280;53177;52.648;1.214;2022-07-29T09:40:39;101435.44;;;21.12;54.30
66381;BME280;53177;52.648;1.214;2022-07-29T09:43:12;101434.28;;;20.99;53.98
66381;BME280;53177;52.648;1.214;2022-07-29T09:45:38;101437.41;;;20.92;55.24
66381;BME280;53177;52.648;1.214;2022-07-29T09:48:15;101435.25;;;20.57;55.06
66381;BME280;53177;52.648;1.214;2022-07-29T09:50:42;101436.72;;;20.68;55.74
66381;BME280;53177;52.648;1.214;2022-07-29T09:53:09;101440.97;;;21.07;54.74
66381;BME280;53177;52.648;1.214;2022-07-29T09:55:48;101436.78;;;21.83;52.70
66381;BME280;53177;52.648;1.214;2022-07-29T09:58:18;101434.75;;;21.75;52.31
66381;BME280;53177;52.648;1.214;2022-07-29T10:00:46;101429.34;;;21.98;53.36
66381;BME280;53177;52.648;1.214;2022-07-29T10:03:16;101435.09;;;22.91;53.85
66381;BME280;53177;52.648;1.214;2022-07-29T10:05:44;101429.03;;;22.80;49.64
66381;BME280;53177;52.648;1.214;2022-07-29T10:08:11;101422.75;;;22.80;50.54
66381;BME280;53177;52.648;1.214;2022-07-29T10:10:41;101428.31;;;22.43;49.99
66381;BME280;53177;52.648;1.214;2022-07-29T10:13:10;101413.03;;;22.96;49.31
66381;BME280;53177;52.648;1.214;2022-07-29T10:15:40;101426.22;;;22.71;49.70
66381;BME280;53177;52.648;1.214;2022-07-29T10:18:08;101424.00;;;22.74;53.38
66381;BME280;53177;52.648;1.214;2022-07-29T10:20:35;101426.03;;;22.23;50.69
66381;BME280;53177;52.648;1.214;2022-07-29T10:23:00;101428.22;;;22.35;52.66
66381;BME280;53177;52.648;1.214;2022-07-29T10:25:26;101420.66;;;22.85;51.58
66381;BME280;53177;52.648;1.214;2022-07-29T10:27:52;101420.91;;;23.29;47.93
66381;BME280;53177;52.648;1.214;2022-07-29T10:30:21;101417.72;;;23.92;48.21
66381;BME280;53177;52.648;1.214;2022-07-29T10:33:26;101421.94;;;24.25;49.11
66381;BME280;53177;52.648;1.214;2022-07-29T10:43:48;101424.19;;;22.32;50.88
66381;BME280;53177;52.648;1.214;2022-07-29T10:46:14;101421.56;;;22.27;50.65
66381;BME280;53177;52.648;1.214;2022-07-29T10:49:11;101423.22;;;22.28;51.65
66381;BME280;53177;52.648;1.214;2022-07-29T10:52:08;101423.72;;;21.53;52.55
66381;BME280;53177;52.648;1.214;2022-07-29T10:57:27;101436.63;;;22.16;53.28
66381;BME280;53177;52.648;1.214;2022-07-29T11:05:07;101443.34;;;21.41;54.68
66381;BME280;53177;52.648;1.214;2022-07-29T11:07:35;101441.66;;;20.66;56.75
66381;BME280;53177;52.648;1.214;2022-07-29T11:15:13;101438.88;;;20.52;58.46
66381;BME280;53177;52.648;1.214;2022-07-29T11:18:06;101437.31;;;20.98;57.63
66381;BME280;53177;52.648;1.214;2022-07-29T11:20:42;101434.97;;;20.39;57.53
66381;BME280;53177;52.648;1.214;2022-07-29T11:29:01;101439.41;;;23.14;52.50
66381;BME280;53177;52.648;1.214;2022-07-29T11:31:39;101430.44;;;23.88;51.10
66381;BME280;53177;52.648;1.214;2022-07-29T11:34:19;101437.28;;;24.08;48.77
66381;BME280;53177;52.648;1.214;2022-07-29T11:39:32;101451.44;;;23.84;52.42
66381;BME280;53177;52.648;1.214;2022-07-29T11:45:02;101446.44;;;23.07;51.56
66381;BME280;53177;52.648;1.214;2022-07-29T11:47:35;101443.66;;;22.76;52.48
66381;BME280;53177;52.648;1.214;2022-07-29T11:50:06;101456.81;;;21.37;57.64
66381;BME280;53177;52.648;1.214;2022-07-29T11:52:37;101445.53;;;21.25;56.85
66381;BME280;53177;52.648;1.214;2022-07-29T11:55:10;101450.25;;;21.66;57.28
66381;BME280;53177;52.648;1.214;2022-07-29T11:57:36;101447.94;;;22.23;54.59
66381;BME280;53177;52.648;1.214;2022-07-29T12:00:05;101448.31;;;22.30;54.09
66381;BME280;53177;52.648;1.214;2022-07-29T12:02:40;101441.13;;;21.84;55.57
66381;BME280;53177;52.648;1.214;2022-07-29T12:05:08;101447.41;;;21.71;55.26
66381;BME280;53177;52.648;1.214;2022-07-29T12:07:34;101443.28;;;22.24;54.54
66381;BME280;53177;52.648;1.214;2022-07-29T12:10:00;101449.78;;;22.14;54.38
66381;BME280;53177;52.648;1.214;2022-07-29T12:12:26;101445.72;;;22.48;54.07
66381;BME280;53177;52.648;1.214;2022-07-29T12:14:52;101451.75;;;22.36;54.02
66381;BME280;53177;52.648;1.214;2022-07-29T12:19:53;101445.34;;;22.63;54.68
66381;BME280;53177;52.648;1.214;2022-07-29T12:22:26;101447.13;;;23.52;50.97
66381;BME280;53177;52.648;1.214;2022-07-29T12:24:52;101441.78;;;23.95;52.50
66381;BME280;53177;52.648;1.214;2022-07-29T12:27:17;101436.94;;;24.27;48.26
66381;BME280;53177;52.648;1.214;2022-07-29T12:29:43;101434.84;;;24.59;52.95
66381;BME280;53177;52.648;1.214;2022-07-29T12:32:09;101447.94;;;23.13;50.10
66381;BME280;53177;52.648;1.214;2022-07-29T12:34:35;101432.28;;;23.44;49.48
66381;BME280;53177;52.648;1.214;2022-07-29T12:37:00;101445.78;;;22.56;51.58
66381;BME280;53177;52.648;1.214;2022-07-29T12:39:26;101443.66;;;21.67;53.97
66381;BME280;53177;52.648;1.214;2022-07-29T12:41:53;101438.22;;;22.17;52.77
66381;BME280;53177;52.648;1.214;2022-07-29T12:44:19;101443.47;;;23.26;55.63
66381;BME280;53177;52.648;1.214;2022-07-29T12:46:44;101445.84;;;22.87;51.96
66381;BME280;53177;52.648;1.214;2022-07-29T12:49:21;101450.28;;;22.16;52.73
66381;BME280;53177;52.648;1.214;2022-07-29T12:51:47;101440.34;;;22.87;55.57
66381;BME280;53177;52.648;1.214;2022-07-29T12:54:14;101440.13;;;22.53;55.69
66381;BME280;53177;52.648;1.214;2022-07-29T12:56:41;101447.19;;;22.31;53.94
66381;BME280;53177;52.648;1.214;2022-07-29T12:59:21;101453.16;;;22.92;52.12
66381;BME280;53177;52.648;1.214;2022-07-29T13:01:49;101453.13;;;22.69;52.63
66381;BME280;53177;52.648;1.214;2022-07-29T13:04:30;101453.69;;;23.03;51.97
66381;BME280;53177;52.648;1.214;2022-07-29T13:07:23;101456.53;;;22.75;52.24
66381;BME280;53177;52.648;1.214;2022-07-29T13:09:48;101452.69;;;22.99;51.86
66381;BME280;53177;52.648;1.214;2022-07-29T13:12:14;101460.66;;;22.41;52.70
66381;BME280;53177;52.648;1.214;2022-07-29T13:14:42;101454.03;;;22.20;53.16
66381;BME280;53177;52.648;1.214;2022-07-29T13:17:19;101459.97;;;22.58;58.20
66381;BME280;53177;52.648;1.214;2022-07-29T13:20:03;101450.28;;;22.16;52.91
66381;BME280;53177;52.648;1.214;2022-07-29T13:22:29;101458.34;;;21.85;53.67
66381;BME280;53177;52.648;1.214;2022-07-29T13:25:00;101447.19;;;21.81;53.72
66381;BME280;53177;52.648;1.214;2022-07-29T13:27:30;101443.66;;;21.81;53.40
66381;BME280;53177;52.648;1.214;2022-07-29T13:29:58;101436.63;;;22.38;51.99
66381;BME280;53177;52.648;1.214;2022-07-29T13:32:26;101435.09;;;23.22;54.25
66381;BME280;53177;52.648;1.214;2022-07-29T13:34:52;101439.97;;;24.78;52.29
66381;BME280;53177;52.648;1.214;2022-07-29T13:37:18;101430.47;;;24.06;47.84
66381;BME280;53177;52.648;1.214;2022-07-29T13:39:44;101429.06;;;24.60;50.54
66381;BME280;53177;52.648;1.214;2022-07-29T13:42:10;101429.84;;;24.61;47.21